createdAt,value
2024-01-08T00:00:18.880Z,15.43
2024-01-08T00:03:20.607Z,16.33
2024-01-08T00:06:22.801Z,15.35
2024-01-08T00:09:24.636Z,16.88
2024-01-08T00:12:26.570Z,13.70
2024-01-08T00:15:28.532Z,16.50
2024-01-08T00:18:30.916Z,12.20
2024-01-08T00:21:32.867Z,12.68
2024-01-08T00:24:34.580Z,15.52
2024-01-08T00:27:36.768Z,11.65
2024-01-08T00:30:38.397Z,17.70
2024-01-08T00:33:40.734Z,15.93
2024-01-08T00:36:42.677Z,15.30
2024-01-08T00:39:45.049Z,16.75
2024-01-08T00:42:46.879Z,13.13
2024-01-08T00:45:48.703Z,11.35
2024-01-08T00:48:52.167Z,14.23
2024-01-08T00:51:54.160Z,14.68
2024-01-08T00:54:56.077Z,12.75
2024-01-08T00:58:00.101Z,10.40
2024-01-08T01:01:02.271Z,10.90
2024-01-08T01:04:04.139Z,11.98
2024-01-08T01:07:05.934Z,10.30
2024-01-08T01:10:09.127Z,13.23
2024-01-08T01:13:10.978Z,15.10
2024-01-08T01:16:12.970Z,17.50
2024-01-08T01:19:15.513Z,18.00
2024-01-08T01:22:17.242Z,14.85
2024-01-08T01:25:19.125Z,14.80
2024-01-08T01:28:21.060Z,15.88
2024-01-08T01:31:23.103Z,14.13
2024-01-08T01:34:25.469Z,16.08
2024-01-08T01:37:27.671Z,13.52
2024-01-08T01:40:29.672Z,17.90
2024-01-08T01:43:33.516Z,13.98
2024-01-08T01:46:46.212Z,14.80
2024-01-08T01:49:48.274Z,12.38
2024-01-08T01:52:50.889Z,11.43
2024-01-08T01:55:54.348Z,11.57
2024-01-08T01:58:57.687Z,13.55
2024-01-08T02:02:00.042Z,12.68
2024-01-08T02:05:02.760Z,12.75
2024-01-08T02:08:04.696Z,12.60
2024-01-08T02:11:06.672Z,13.50
2024-01-08T02:14:08.558Z,11.88
2024-01-08T02:17:10.546Z,15.10
2024-01-08T02:20:12.654Z,11.55
2024-01-08T02:23:14.902Z,9.82
2024-01-08T02:26:17.674Z,17.20
2024-01-08T02:29:20.945Z,12.00
2024-01-08T02:32:22.722Z,12.88
2024-01-08T02:35:24.836Z,10.15
2024-01-08T02:38:26.979Z,10.73
2024-01-08T02:41:29.021Z,11.48
2024-01-08T02:44:30.923Z,11.05
2024-01-08T02:47:34.822Z,10.88
2024-01-08T02:50:37.235Z,9.65
2024-01-08T02:53:39.323Z,8.95
2024-01-08T02:56:41.164Z,8.60
2024-01-08T02:59:42.882Z,9.27
2024-01-08T03:02:44.781Z,8.80
2024-01-08T03:05:46.775Z,7.18
2024-01-08T03:08:48.830Z,6.00
2024-01-08T03:11:50.635Z,6.97
2024-01-08T03:14:52.785Z,6.28
2024-01-08T03:17:54.959Z,6.50
2024-01-08T03:20:56.962Z,7.07
2024-01-08T03:23:58.774Z,6.90
2024-01-08T03:27:00.877Z,7.22
2024-01-08T03:30:02.832Z,5.90
2024-01-08T03:33:05.218Z,7.38
2024-01-08T03:36:10.346Z,6.45
2024-01-08T03:39:13.621Z,7.88
2024-01-08T03:42:15.406Z,6.72
2024-01-08T03:45:17.389Z,6.68
2024-01-08T03:48:19.282Z,7.38
2024-01-08T03:51:21.053Z,9.20
2024-01-08T03:54:22.848Z,7.25
2024-01-08T03:57:24.729Z,8.07
2024-01-08T04:00:26.625Z,9.68
2024-01-08T04:03:28.506Z,8.73
2024-01-08T04:06:30.454Z,8.10
2024-01-08T04:09:32.653Z,9.60
2024-01-08T04:12:34.932Z,9.98
2024-01-08T04:15:36.909Z,9.75
2024-01-08T04:18:38.998Z,10.38
2024-01-08T04:21:41.132Z,9.48
2024-01-08T04:24:42.969Z,10.65
2024-01-08T04:27:45.013Z,11.55
2024-01-08T04:30:47.006Z,11.40
2024-01-08T04:33:50.224Z,13.13
2024-01-08T04:36:52.490Z,11.32
2024-01-08T04:39:54.624Z,12.68
2024-01-08T04:42:56.404Z,10.93
2024-01-08T04:45:58.136Z,10.15
2024-01-08T04:49:01.369Z,8.32
2024-01-08T04:52:03.781Z,9.88
2024-01-08T04:55:05.953Z,8.90
2024-01-08T04:58:07.934Z,8.50
2024-01-08T05:01:09.853Z,8.88
2024-01-08T05:04:13.154Z,9.32
2024-01-08T05:07:15.491Z,9.48
2024-01-08T05:10:17.601Z,10.02
2024-01-08T05:13:19.550Z,8.05
2024-01-08T05:16:21.620Z,9.82
2024-01-08T05:19:23.531Z,8.88
2024-01-08T05:22:25.319Z,9.05
2024-01-08T05:25:27.453Z,9.13
2024-01-08T05:28:30.276Z,9.30
2024-01-08T05:31:32.445Z,7.28
2024-01-08T05:34:34.232Z,8.05
2024-01-08T05:37:36.228Z,7.80
2024-01-08T05:40:38.023Z,8.77
2024-01-08T05:43:39.964Z,8.90
2024-01-08T05:46:45.537Z,9.68
2024-01-08T05:49:47.451Z,9.43
2024-01-08T05:52:49.458Z,8.52
2024-01-08T05:55:51.375Z,8.15
2024-01-08T05:58:53.534Z,8.02
2024-01-08T06:01:55.438Z,8.82
2024-01-08T06:04:57.710Z,8.63
2024-01-08T06:08:01.934Z,8.50
2024-01-08T06:11:05.346Z,8.13
2024-01-08T06:14:08.437Z,8.35
2024-01-08T06:17:11.272Z,8.10
2024-01-08T06:20:13.950Z,12.90
2024-01-08T06:23:16.139Z,10.18
2024-01-08T06:26:18.030Z,8.98
2024-01-08T06:29:20.350Z,9.02
2024-01-08T06:32:22.353Z,8.25
2024-01-08T06:35:25.135Z,8.20
2024-01-08T06:38:26.946Z,7.63
2024-01-08T06:41:28.985Z,7.90
2024-01-08T06:44:30.994Z,7.80
2024-01-08T06:47:33.909Z,7.60
2024-01-08T06:50:37.969Z,8.52
2024-01-08T06:53:41.023Z,9.57
2024-01-08T06:56:43.249Z,9.38
2024-01-08T06:59:47.213Z,9.00
2024-01-08T07:02:50.185Z,7.88
2024-01-08T07:05:52.158Z,8.25
2024-01-08T07:08:54.152Z,7.80
2024-01-08T07:11:57.039Z,8.10
2024-01-08T07:14:58.905Z,6.70
2024-01-08T07:18:00.888Z,6.60
2024-01-08T07:21:02.884Z,9.32
2024-01-08T07:24:04.983Z,7.25
2024-01-08T07:27:07.242Z,7.47
2024-01-08T07:30:11.036Z,6.88
2024-01-08T07:33:14.484Z,10.02
2024-01-08T07:36:16.233Z,7.35
2024-01-08T07:39:18.207Z,8.15
2024-01-08T07:42:19.987Z,6.95
2024-01-08T07:45:25.166Z,8.07
2024-01-08T07:48:27.852Z,7.40
2024-01-08T07:51:32.261Z,7.57
2024-01-08T07:54:35.367Z,7.35
2024-01-08T07:57:37.887Z,8.13
2024-01-08T08:00:39.572Z,8.45
2024-01-08T08:03:41.526Z,6.90
2024-01-08T08:06:45.402Z,7.55
2024-01-08T08:09:47.583Z,7.65
2024-01-08T08:12:49.596Z,7.88
2024-01-08T08:15:51.524Z,8.02
2024-01-08T08:18:53.579Z,7.97
2024-01-08T08:21:55.762Z,7.22
2024-01-08T08:24:57.839Z,6.40
2024-01-08T08:27:59.981Z,7.45
2024-01-08T08:31:02.332Z,6.32
2024-01-08T08:34:04.584Z,7.38
2024-01-08T08:37:13.282Z,9.00
2024-01-08T08:40:15.677Z,9.35
2024-01-08T08:43:18.094Z,11.00
2024-01-08T08:46:19.893Z,5.75
2024-01-08T08:49:22.398Z,6.78
2024-01-08T08:52:24.379Z,6.55
2024-01-08T08:55:26.308Z,6.22
2024-01-08T08:58:29.860Z,7.07
2024-01-08T09:01:33.038Z,7.57
2024-01-08T09:04:35.378Z,6.43
2024-01-08T09:07:37.878Z,7.20
2024-01-08T09:10:40.031Z,7.35
2024-01-08T09:13:41.958Z,6.60
2024-01-08T09:16:44.458Z,7.13
2024-01-08T09:19:49.335Z,6.47
2024-01-08T09:22:53.087Z,6.32
2024-01-08T09:25:55.127Z,6.85
2024-01-08T09:28:57.156Z,7.57
2024-01-08T09:31:59.005Z,6.45
2024-01-08T09:35:01.331Z,6.93
2024-01-08T09:38:03.886Z,7.78
2024-01-08T09:41:11.928Z,6.90
2024-01-08T09:44:22.613Z,7.30
2024-01-08T09:47:25.890Z,7.93
2024-01-08T09:50:27.818Z,7.13
2024-01-08T09:53:30.668Z,6.95
2024-01-08T09:56:32.581Z,6.80
2024-01-08T09:59:35.315Z,6.45
2024-01-08T10:02:38.958Z,7.63
2024-01-08T10:05:41.378Z,7.68
2024-01-08T10:08:43.612Z,6.18
2024-01-08T10:11:45.676Z,6.82
2024-01-08T10:14:47.635Z,6.15
2024-01-08T10:17:52.858Z,7.70
2024-01-08T10:21:16.918Z,6.47
2024-01-08T10:24:25.289Z,6.88
2024-01-08T10:27:27.232Z,6.85
2024-01-08T10:30:30.217Z,6.38
2024-01-08T10:33:32.500Z,7.03
2024-01-08T10:36:34.805Z,8.15
2024-01-08T10:39:47.310Z,6.72
2024-01-08T10:42:53.219Z,6.18
2024-01-08T10:45:58.522Z,6.95
2024-01-08T10:49:02.390Z,7.40
2024-01-08T10:52:15.490Z,7.78
2024-01-08T10:55:17.710Z,7.65
2024-01-08T10:58:25.453Z,7.75
2024-01-08T11:01:29.160Z,7.68
2024-01-08T11:04:32.306Z,6.45
2024-01-08T11:07:37.798Z,7.28
2024-01-08T11:10:39.932Z,7.47
2024-01-08T11:13:42.141Z,7.05
2024-01-08T11:16:44.546Z,7.25
2024-01-08T11:19:46.833Z,6.97
2024-01-08T11:22:49.255Z,7.03
2024-01-08T11:25:51.756Z,7.47
2024-01-08T11:29:07.057Z,7.15
2024-01-08T11:32:27.926Z,7.60
2024-01-08T11:38:32.828Z,7.28
2024-01-08T11:41:35.438Z,6.93
2024-01-08T11:44:37.657Z,6.93
2024-01-08T11:47:40.010Z,6.93
2024-01-08T11:50:45.166Z,8.15
2024-01-08T11:53:48.591Z,7.10
2024-01-08T11:56:51.113Z,7.60
2024-01-08T11:59:53.898Z,6.85
2024-01-08T12:03:05.751Z,7.68
2024-01-08T12:06:09.193Z,6.80
2024-01-08T12:09:11.063Z,7.50
2024-01-08T12:12:12.844Z,8.35
2024-01-08T12:15:15.826Z,7.07
2024-01-08T12:18:18.671Z,7.78
2024-01-08T12:21:20.880Z,7.78
2024-01-08T12:24:22.788Z,7.20
2024-01-08T12:27:32.696Z,7.03
2024-01-08T12:30:35.815Z,7.10
2024-01-08T12:33:37.863Z,7.15
2024-01-08T12:36:39.544Z,6.82
2024-01-08T12:39:41.350Z,7.50
2024-01-08T12:42:45.015Z,7.45
2024-01-08T12:45:51.892Z,7.45
2024-01-08T12:48:53.842Z,7.38
2024-01-08T12:51:57.533Z,6.40
2024-01-08T12:54:59.727Z,7.20
2024-01-08T12:58:02.588Z,9.52
2024-01-08T13:01:04.452Z,7.63
2024-01-08T13:04:06.453Z,8.20
2024-01-08T13:07:08.096Z,7.03
2024-01-08T13:10:10.462Z,7.05
2024-01-08T13:13:12.297Z,6.55
2024-01-08T13:16:14.541Z,7.75
2024-01-08T13:19:16.952Z,7.72
2024-01-08T13:22:19.165Z,7.18
2024-01-08T13:25:21.778Z,7.28
2024-01-08T13:28:23.745Z,6.57
2024-01-08T13:31:25.852Z,7.30
2024-01-08T13:34:28.021Z,6.88
2024-01-08T13:37:30.129Z,6.60
2024-01-08T13:40:33.238Z,7.45
2024-01-08T13:43:35.704Z,7.25
2024-01-08T13:46:37.643Z,6.93
2024-01-08T13:49:39.733Z,8.05
2024-01-08T13:52:41.458Z,6.07
2024-01-08T13:55:43.352Z,6.63
2024-01-08T13:58:45.417Z,7.32
2024-01-08T14:01:47.233Z,7.10
2024-01-08T14:04:50.281Z,6.75
2024-01-08T14:07:53.020Z,6.72
2024-01-08T14:10:55.198Z,7.00
2024-01-08T14:13:57.554Z,6.55
2024-01-08T14:16:59.682Z,7.10
2024-01-08T14:20:01.853Z,6.32
2024-01-08T14:23:04.184Z,8.35
2024-01-08T14:26:06.610Z,6.07
2024-01-08T14:29:08.576Z,6.68
2024-01-08T14:32:11.563Z,7.50
2024-01-08T14:35:13.754Z,6.10
2024-01-08T14:38:18.204Z,8.23
2024-01-08T14:41:21.012Z,6.55
2024-01-08T14:44:22.732Z,7.15
2024-01-08T14:47:25.027Z,6.03
2024-01-08T14:50:28.181Z,6.38
2024-01-08T14:53:41.841Z,8.27
2024-01-08T14:56:43.899Z,7.03
2024-01-08T14:59:46.284Z,7.78
2024-01-08T15:02:48.169Z,6.78
2024-01-08T15:05:50.503Z,6.30
2024-01-08T15:08:52.616Z,7.20
2024-01-08T15:11:55.411Z,6.50
2024-01-08T15:14:57.420Z,6.03
2024-01-08T15:17:59.363Z,6.82
2024-01-08T15:21:02.416Z,7.15
2024-01-08T15:24:05.116Z,7.28
2024-01-08T15:27:08.312Z,7.18
2024-01-08T15:30:15.817Z,8.05
2024-01-08T15:33:18.395Z,8.02
2024-01-08T15:36:20.879Z,7.15
2024-01-08T15:39:23.150Z,6.35
2024-01-08T15:42:24.959Z,7.53
2024-01-08T15:45:27.319Z,6.82
2024-01-08T15:48:29.969Z,6.00
2024-01-08T15:51:31.870Z,6.95
2024-01-08T15:54:33.662Z,6.95
2024-01-08T15:57:35.369Z,6.63
2024-01-08T16:00:37.401Z,7.20
2024-01-08T16:03:39.426Z,7.75
2024-01-08T16:06:41.259Z,7.68
2024-01-08T16:09:43.278Z,8.60
2024-01-08T16:12:45.631Z,7.03
2024-01-08T16:15:47.351Z,6.63
2024-01-08T16:18:50.002Z,7.65
2024-01-08T16:21:51.973Z,6.80
2024-01-08T16:24:53.789Z,7.85
2024-01-08T16:27:55.575Z,6.97
2024-01-08T16:30:58.512Z,7.28
2024-01-08T16:34:00.408Z,7.85
2024-01-08T16:37:02.493Z,6.70
2024-01-08T16:40:04.750Z,7.93
2024-01-08T16:43:06.704Z,8.10
2024-01-08T16:46:08.733Z,7.40
2024-01-08T16:49:11.113Z,7.38
2024-01-08T16:52:13.377Z,7.65
2024-01-08T16:55:16.897Z,7.55
2024-01-08T16:58:18.884Z,8.30
2024-01-08T17:01:23.573Z,11.60
2024-01-08T17:04:25.638Z,8.48
2024-01-08T17:07:27.824Z,9.27
2024-01-08T17:10:32.143Z,7.05
2024-01-08T17:13:34.038Z,7.10
2024-01-08T17:16:36.256Z,8.30
2024-01-08T17:19:38.524Z,7.43
2024-01-08T17:22:40.455Z,7.38
2024-01-08T17:25:44.410Z,7.35
2024-01-08T17:28:46.195Z,8.50
2024-01-08T17:31:48.040Z,6.68
2024-01-08T17:34:50.161Z,6.00
2024-01-08T17:37:52.263Z,6.63
2024-01-08T17:40:54.083Z,6.97
2024-01-08T17:43:56.024Z,7.50
2024-01-08T17:46:59.720Z,7.07
2024-01-08T17:50:02.427Z,7.63
2024-01-08T17:53:04.621Z,6.15
2024-01-08T17:56:07.751Z,7.50
2024-01-08T17:59:09.728Z,7.10
2024-01-08T18:02:11.836Z,7.72
2024-01-08T18:05:15.303Z,7.53
2024-01-08T18:08:17.460Z,7.85
2024-01-08T18:11:19.648Z,7.95
2024-01-08T18:14:22.684Z,9.07
2024-01-08T18:17:24.947Z,6.80
2024-01-08T18:20:28.435Z,7.80
2024-01-08T18:23:30.602Z,8.18
2024-01-08T18:26:32.359Z,8.07
2024-01-08T18:29:34.267Z,7.43
2024-01-08T18:32:36.665Z,7.63
2024-01-08T18:35:39.103Z,8.48
2024-01-08T18:38:40.796Z,7.05
2024-01-08T18:41:44.399Z,7.22
2024-01-08T18:44:46.388Z,8.02
2024-01-08T18:47:48.317Z,7.07
2024-01-08T18:50:50.404Z,6.97
2024-01-08T18:53:52.510Z,7.47
2024-01-08T18:56:55.152Z,7.40
2024-01-08T18:59:57.366Z,8.55
2024-01-08T19:02:59.622Z,6.97
2024-01-08T19:06:02.454Z,8.18
2024-01-08T19:09:06.763Z,10.52
2024-01-08T19:12:10.377Z,8.82
2024-01-08T19:15:14.436Z,8.45
2024-01-08T19:18:16.790Z,8.90
2024-01-08T19:21:19.673Z,7.22
2024-01-08T19:24:22.656Z,8.75
2024-01-08T19:27:25.805Z,8.10
2024-01-08T19:30:27.808Z,7.90
2024-01-08T19:33:29.661Z,8.95
2024-01-08T19:36:31.698Z,9.82
2024-01-08T19:39:33.612Z,8.73
2024-01-08T19:42:35.699Z,11.50
2024-01-08T19:45:37.600Z,7.75
2024-01-08T19:48:39.580Z,8.40
2024-01-08T19:51:41.860Z,7.70
2024-01-08T19:54:45.053Z,7.80
2024-01-08T19:57:47.282Z,7.90
2024-01-08T20:00:49.421Z,8.90
2024-01-08T20:03:51.379Z,8.13
2024-01-08T20:06:53.255Z,7.60
2024-01-08T20:09:55.955Z,7.38
2024-01-08T20:12:57.704Z,10.20
2024-01-08T20:15:59.768Z,8.27
2024-01-08T20:19:01.843Z,10.10
2024-01-08T20:22:03.833Z,8.63
2024-01-08T20:25:06.379Z,8.15
2024-01-08T20:28:08.167Z,7.47
2024-01-08T20:31:10.633Z,10.05
2024-01-08T20:34:13.987Z,7.57
2024-01-08T20:37:17.936Z,8.30
2024-01-08T20:40:19.919Z,7.80
2024-01-08T20:43:21.898Z,8.32
2024-01-08T20:46:24.205Z,8.95
2024-01-08T20:49:28.325Z,7.32
2024-01-08T20:52:30.322Z,7.32
2024-01-08T20:55:32.408Z,7.90
2024-01-08T20:58:34.229Z,8.10
2024-01-08T21:01:37.272Z,10.02
2024-01-08T21:04:41.884Z,8.95
2024-01-08T21:07:44.065Z,9.40
2024-01-08T21:10:45.849Z,7.90
2024-01-08T21:13:47.830Z,8.68
2024-01-08T21:16:49.690Z,6.88
2024-01-08T21:19:52.044Z,7.90
2024-01-08T21:22:53.933Z,8.60
2024-01-08T21:25:57.092Z,8.55
2024-01-08T21:28:58.902Z,9.18
2024-01-08T21:32:01.183Z,7.95
2024-01-08T21:35:03.050Z,7.28
2024-01-08T21:38:04.936Z,8.50
2024-01-08T21:41:07.307Z,9.27
2024-01-08T21:44:15.407Z,8.32
2024-01-08T21:47:17.427Z,9.15
2024-01-08T21:50:19.420Z,9.40
2024-01-08T21:53:21.437Z,8.35
2024-01-08T21:56:23.595Z,7.70
2024-01-08T21:59:25.427Z,8.88
2024-01-08T22:02:27.447Z,8.90
2024-01-08T22:05:29.165Z,7.45
2024-01-08T22:08:31.269Z,7.90
2024-01-08T22:11:33.414Z,7.80
2024-01-08T22:14:35.620Z,7.75
2024-01-08T22:17:38.145Z,8.07
2024-01-08T22:20:40.152Z,8.20
2024-01-08T22:23:43.169Z,7.80
2024-01-08T22:26:45.117Z,9.27
2024-01-08T22:29:47.103Z,9.20
2024-01-08T22:32:49.307Z,8.32
2024-01-08T22:35:51.723Z,9.50
2024-01-08T22:38:53.678Z,9.05
2024-01-08T22:41:55.673Z,7.53
2024-01-08T22:44:57.690Z,8.40
2024-01-08T22:47:59.771Z,6.68
2024-01-08T22:51:01.889Z,7.60
2024-01-08T22:54:03.884Z,9.00
2024-01-08T22:57:05.788Z,9.00
2024-01-08T23:00:09.302Z,6.82
2024-01-08T23:03:11.553Z,7.47
2024-01-08T23:06:13.896Z,7.97
2024-01-08T23:09:15.726Z,8.95
2024-01-08T23:12:17.774Z,8.75
2024-01-08T23:15:20.225Z,8.00
2024-01-08T23:18:22.700Z,8.35
2024-01-08T23:21:24.546Z,8.48
2024-01-08T23:24:26.526Z,9.75
2024-01-08T23:27:28.321Z,9.07
2024-01-08T23:30:30.045Z,10.25
2024-01-08T23:33:32.071Z,11.43
2024-01-08T23:36:35.221Z,10.43
2024-01-08T23:39:38.062Z,9.23
2024-01-08T23:42:43.460Z,10.45
2024-01-08T23:45:45.557Z,11.70
2024-01-08T23:48:47.369Z,12.73
2024-01-08T23:51:49.305Z,17.63
2024-01-08T23:54:51.015Z,11.43
2024-01-08T23:57:53.164Z,17.25
